Uji, Japan
Current Conditions -  °F | °C
As of 8:00 PM on Thursday 18 Dec 2014 (Local Time) from RJOO Reporting Station
Few Clouds Few Clouds  
Wind Chill: 36°   Ceiling: Unl
Heat Index: 36°   Visibility: 6mi
Dew Point: 28°   Wind: 3mph
Humidity: 75%   Direction: 260°W
Pressure: 30.39"   Gusts: NA
Location:  34.9°N, 135.8°E
Report Text: RJOO 181100Z 26003KT 220V290 9999 FEW015 02/M02 Q1029
Loading
Personal Weather Stations






























Interactive Weather Map New forecast layout! Learn more

10-Day Weather Forecast

Advertisements
Track Severe Weather on mobile